Pagrindinis puslapis
METAR-TAF:

METAR-TAF

Oro uostai :

Angilijos Wallblake oro uostas

Angilija, Angilija

platuma: 18-12-17N, ilguma: 063-03-18W, Aukštis: 31 m

Dabartinis oras

Ataskaita buvo paskelbta 3 valandos ir 9 minutes, ne 23:00 UTC
Vėjas 4 kt iš Šiaurės Rytų
Temperatūra 25°C
Drėgmė 79%
Slėgis 1014 hPa
Matomumas 10 km arba daugiau
Mažai debesys ne aukštis 1900 ft

METAR: TQPF 282300Z 05004KT 9999 FEW019 25/21 Q1014

Laikas: 22:09 (02:09 UTC)

Prognozė

Ataskaita buvo paskelbta 9 valandos ir 9 minutes, ne 17:00 UTC
Prognozė galioja nuo 28 metu 18 UTC su 29 metu 18 UTC
Vėjas 12 kt iš Rytų
Matomumas 10 km arba daugiau
Išsisklaidę debesys ne aukštis 2000 ft

TAF: TQPF 281700Z 2818/2918 10012KT 9999 SCT020

Orai ataskaitas ir orų prognozės (METAR, TAF).

turimą stotys yra geltonos ir raudonos taškus žemėlapyje.

Perkelti pele per norėdami pamatyti stoties vardą.

Tada spustelėkite, norėdami matyti oro stebėjimo ir prognozės.

Norėdami pakeisti žemėlapį: spustelėkite ant žalios mygtukų su juodo kryžiaus žemyn,; žalią mygtuką su brūkšneliu, jei norite nutolinti; arba žalių rodyklių gretimoms žemėlapius.


METAR-TAF: